Laceys Spring, Alabama
Current Conditions -  °F | °C
As of 10:53 AM on Thursday 23 Oct 2014 (Local Time) from KHSV Reporting Station
Scattered Clouds Scattered Clouds  
Wind Chill: 59°   Ceiling: Unl
Heat Index: 59°   Visibility: 10mi
Dew Point: 42°   Wind: 3mph
Humidity: 53%   Direction: 40°NE
Pressure: 30.18"   Gusts: NA
Location:  34.53°N, 86.6°W
Report Text: KHSV 231553Z 04003KT 10SM SCT250 15/06 A3018 RMK AO2 SLP219 T01500056
Loading
Personal Weather Stations






























Interactive Weather Map New forecast layout! Learn more

10-Day Weather Forecast

Advertisements
Track Severe Weather on mobile